sensor_id;sensor_type;location;lat;lon;timestamp;P1;durP1;ratioP1;P2;durP2;ratioP2
66425;SDS011;53237;46.158;14.604;2023-04-08T00:00:36;7.88;;;7.07;;
66425;SDS011;53237;46.158;14.604;2023-04-08T00:03:02;7.57;;;6.80;;
66425;SDS011;53237;46.158;14.604;2023-04-08T00:05:28;8.25;;;6.53;;
66425;SDS011;53237;46.158;14.604;2023-04-08T00:07:54;8.80;;;7.45;;
66425;SDS011;53237;46.158;14.604;2023-04-08T00:10:20;7.82;;;7.13;;
66425;SDS011;53237;46.158;14.604;2023-04-08T00:12:46;9.18;;;8.05;;
66425;SDS011;53237;46.158;14.604;2023-04-08T00:15:13;8.38;;;7.53;;
66425;SDS011;53237;46.158;14.604;2023-04-08T00:17:40;9.15;;;7.82;;
66425;SDS011;53237;46.158;14.604;2023-04-08T00:20:06;9.85;;;7.97;;
66425;SDS011;53237;46.158;14.604;2023-04-08T00:22:32;10.40;;;7.63;;
66425;SDS011;53237;46.158;14.604;2023-04-08T00:24:58;10.80;;;7.68;;
66425;SDS011;53237;46.158;14.604;2023-04-08T00:27:24;8.50;;;7.55;;
66425;SDS011;53237;46.158;14.604;2023-04-08T00:29:50;12.00;;;7.65;;
66425;SDS011;53237;46.158;14.604;2023-04-08T00:32:16;7.60;;;6.53;;
66425;SDS011;53237;46.158;14.604;2023-04-08T00:34:42;8.05;;;7.13;;
66425;SDS011;53237;46.158;14.604;2023-04-08T00:37:08;8.85;;;7.95;;
66425;SDS011;53237;46.158;14.604;2023-04-08T00:39:35;8.68;;;7.57;;
66425;SDS011;53237;46.158;14.604;2023-04-08T00:42:01;9.57;;;8.43;;
66425;SDS011;53237;46.158;14.604;2023-04-08T00:44:27;7.05;;;6.32;;
66425;SDS011;53237;46.158;14.604;2023-04-08T00:46:53;7.75;;;6.82;;
66425;SDS011;53237;46.158;14.604;2023-04-08T00:49:20;9.20;;;8.00;;
66425;SDS011;53237;46.158;14.604;2023-04-08T00:51:46;7.88;;;6.95;;
66425;SDS011;53237;46.158;14.604;2023-04-08T00:54:12;8.30;;;7.47;;
66425;SDS011;53237;46.158;14.604;2023-04-08T00:56:38;8.15;;;7.30;;
66425;SDS011;53237;46.158;14.604;2023-04-08T00:59:04;9.93;;;7.68;;
66425;SDS011;53237;46.158;14.604;2023-04-08T01:01:37;8.30;;;7.25;;
66425;SDS011;53237;46.158;14.604;2023-04-08T01:04:06;9.10;;;7.75;;
66425;SDS011;53237;46.158;14.604;2023-04-08T01:06:37;6.78;;;6.07;;
66425;SDS011;53237;46.158;14.604;2023-04-08T01:09:07;8.15;;;7.15;;
66425;SDS011;53237;46.158;14.604;2023-04-08T01:11:33;8.93;;;7.07;;
66425;SDS011;53237;46.158;14.604;2023-04-08T01:14:00;7.15;;;6.45;;
66425;SDS011;53237;46.158;14.604;2023-04-08T01:16:30;7.60;;;6.78;;
66425;SDS011;53237;46.158;14.604;2023-04-08T01:18:56;7.65;;;6.78;;
66425;SDS011;53237;46.158;14.604;2023-04-08T01:21:23;7.18;;;6.47;;
66425;SDS011;53237;46.158;14.604;2023-04-08T01:26:23;7.43;;;6.72;;
66425;SDS011;53237;46.158;14.604;2023-04-08T01:28:51;8.25;;;7.40;;
66425;SDS011;53237;46.158;14.604;2023-04-08T01:31:18;7.38;;;6.53;;
66425;SDS011;53237;46.158;14.604;2023-04-08T01:33:44;9.52;;;7.93;;
66425;SDS011;53237;46.158;14.604;2023-04-08T01:36:11;7.68;;;6.85;;
66425;SDS011;53237;46.158;14.604;2023-04-08T01:38:37;8.38;;;6.65;;
66425;SDS011;53237;46.158;14.604;2023-04-08T01:41:03;7.35;;;6.65;;
66425;SDS011;53237;46.158;14.604;2023-04-08T01:43:30;7.43;;;6.63;;
66425;SDS011;53237;46.158;14.604;2023-04-08T01:45:57;7.50;;;6.70;;
66425;SDS011;53237;46.158;14.604;2023-04-08T01:48:24;7.50;;;6.47;;
66425;SDS011;53237;46.158;14.604;2023-04-08T01:50:51;7.57;;;6.78;;
66425;SDS011;53237;46.158;14.604;2023-04-08T01:53:18;6.63;;;5.93;;
66425;SDS011;53237;46.158;14.604;2023-04-08T01:55:44;7.45;;;6.65;;
66425;SDS011;53237;46.158;14.604;2023-04-08T01:58:10;6.40;;;5.80;;
66425;SDS011;53237;46.158;14.604;2023-04-08T02:00:38;7.80;;;6.22;;
66425;SDS011;53237;46.158;14.604;2023-04-08T02:03:05;8.48;;;5.93;;
66425;SDS011;53237;46.158;14.604;2023-04-08T02:05:32;7.43;;;6.40;;
66425;SDS011;53237;46.158;14.604;2023-04-08T02:07:58;7.35;;;6.13;;
66425;SDS011;53237;46.158;14.604;2023-04-08T02:10:24;8.48;;;6.90;;
66425;SDS011;53237;46.158;14.604;2023-04-08T02:12:50;7.00;;;6.30;;
66425;SDS011;53237;46.158;14.604;2023-04-08T02:15:17;6.20;;;5.60;;
66425;SDS011;53237;46.158;14.604;2023-04-08T02:20:10;7.10;;;6.13;;
66425;SDS011;53237;46.158;14.604;2023-04-08T02:25:24;7.53;;;6.70;;
66425;SDS011;53237;46.158;14.604;2023-04-08T02:27:53;7.88;;;6.47;;
66425;SDS011;53237;46.158;14.604;2023-04-08T02:30:20;8.02;;;6.53;;
66425;SDS011;53237;46.158;14.604;2023-04-08T02:32:47;8.13;;;7.32;;
66425;SDS011;53237;46.158;14.604;2023-04-08T02:35:13;7.10;;;6.40;;
66425;SDS011;53237;46.158;14.604;2023-04-08T02:37:40;7.90;;;6.80;;
66425;SDS011;53237;46.158;14.604;2023-04-08T02:40:22;7.47;;;6.68;;
66425;SDS011;53237;46.158;14.604;2023-04-08T02:45:15;6.90;;;6.20;;
66425;SDS011;53237;46.158;14.604;2023-04-08T02:47:41;6.72;;;6.05;;
66425;SDS011;53237;46.158;14.604;2023-04-08T02:50:08;6.88;;;6.00;;
66425;SDS011;53237;46.158;14.604;2023-04-08T02:52:34;7.68;;;6.40;;
66425;SDS011;53237;46.158;14.604;2023-04-08T02:55:00;6.68;;;5.95;;
66425;SDS011;53237;46.158;14.604;2023-04-08T02:57:26;8.00;;;6.45;;
66425;SDS011;53237;46.158;14.604;2023-04-08T02:59:52;7.78;;;6.82;;
66425;SDS011;53237;46.158;14.604;2023-04-08T03:02:18;6.05;;;5.28;;
66425;SDS011;53237;46.158;14.604;2023-04-08T03:04:44;6.57;;;5.93;;
66425;SDS011;53237;46.158;14.604;2023-04-08T03:07:10;7.25;;;6.00;;
66425;SDS011;53237;46.158;14.604;2023-04-08T03:09:36;6.47;;;5.78;;
66425;SDS011;53237;46.158;14.604;2023-04-08T03:12:02;6.18;;;5.57;;
66425;SDS011;53237;46.158;14.604;2023-04-08T03:14:28;6.80;;;6.10;;
66425;SDS011;53237;46.158;14.604;2023-04-08T03:16:54;6.82;;;6.10;;
66425;SDS011;53237;46.158;14.604;2023-04-08T03:19:20;6.55;;;5.90;;
66425;SDS011;53237;46.158;14.604;2023-04-08T03:21:46;6.20;;;5.60;;
66425;SDS011;53237;46.158;14.604;2023-04-08T03:24:12;7.03;;;6.22;;
66425;SDS011;53237;46.158;14.604;2023-04-08T03:26:38;6.10;;;5.50;;
66425;SDS011;53237;46.158;14.604;2023-04-08T03:29:05;6.88;;;6.18;;
66425;SDS011;53237;46.158;14.604;2023-04-08T03:31:31;7.40;;;5.95;;
66425;SDS011;53237;46.158;14.604;2023-04-08T03:33:57;6.30;;;5.65;;
66425;SDS011;53237;46.158;14.604;2023-04-08T03:36:23;9.20;;;7.25;;
66425;SDS011;53237;46.158;14.604;2023-04-08T03:38:50;7.82;;;7.03;;
66425;SDS011;53237;46.158;14.604;2023-04-08T03:41:16;7.90;;;7.10;;
66425;SDS011;53237;46.158;14.604;2023-04-08T03:43:42;8.88;;;7.97;;
66425;SDS011;53237;46.158;14.604;2023-04-08T03:46:08;8.20;;;7.30;;
66425;SDS011;53237;46.158;14.604;2023-04-08T03:48:34;11.13;;;9.63;;
66425;SDS011;53237;46.158;14.604;2023-04-08T03:51:00;10.20;;;9.10;;
66425;SDS011;53237;46.158;14.604;2023-04-08T03:53:26;9.82;;;8.40;;
66425;SDS011;53237;46.158;14.604;2023-04-08T03:55:53;8.75;;;7.53;;
66425;SDS011;53237;46.158;14.604;2023-04-08T03:58:19;8.93;;;8.13;;
66425;SDS011;53237;46.158;14.604;2023-04-08T04:00:45;9.40;;;7.70;;
66425;SDS011;53237;46.158;14.604;2023-04-08T04:03:11;8.85;;;7.95;;
66425;SDS011;53237;46.158;14.604;2023-04-08T04:05:38;9.60;;;8.30;;
66425;SDS011;53237;46.158;14.604;2023-04-08T04:08:05;9.23;;;8.30;;
66425;SDS011;53237;46.158;14.604;2023-04-08T04:10:31;8.50;;;7.60;;
66425;SDS011;53237;46.158;14.604;2023-04-08T04:12:57;8.65;;;7.75;;
66425;SDS011;53237;46.158;14.604;2023-04-08T04:15:23;9.07;;;7.60;;
66425;SDS011;53237;46.158;14.604;2023-04-08T04:17:49;10.05;;;8.18;;
66425;SDS011;53237;46.158;14.604;2023-04-08T04:20:16;9.10;;;8.20;;
66425;SDS011;53237;46.158;14.604;2023-04-08T04:22:42;8.88;;;7.97;;
66425;SDS011;53237;46.158;14.604;2023-04-08T04:25:08;8.80;;;7.90;;
66425;SDS011;53237;46.158;14.604;2023-04-08T04:27:34;11.63;;;8.45;;
66425;SDS011;53237;46.158;14.604;2023-04-08T04:30:03;9.88;;;8.88;;
66425;SDS011;53237;46.158;14.604;2023-04-08T04:32:30;10.50;;;9.38;;
66425;SDS011;53237;46.158;14.604;2023-04-08T04:34:56;10.30;;;9.20;;
66425;SDS011;53237;46.158;14.604;2023-04-08T04:37:22;11.38;;;8.85;;
66425;SDS011;53237;46.158;14.604;2023-04-08T04:39:48;11.00;;;9.60;;
66425;SDS011;53237;46.158;14.604;2023-04-08T04:42:14;11.55;;;10.20;;
66425;SDS011;53237;46.158;14.604;2023-04-08T04:44:40;10.82;;;9.57;;
66425;SDS011;53237;46.158;14.604;2023-04-08T04:47:06;12.38;;;10.77;;
66425;SDS011;53237;46.158;14.604;2023-04-08T04:49:32;13.45;;;10.80;;
66425;SDS011;53237;46.158;14.604;2023-04-08T04:51:58;15.48;;;12.02;;
66425;SDS011;53237;46.158;14.604;2023-04-08T04:54:24;15.68;;;12.75;;
66425;SDS011;53237;46.158;14.604;2023-04-08T04:56:50;15.52;;;12.60;;
66425;SDS011;53237;46.158;14.604;2023-04-08T04:59:16;15.75;;;12.80;;
66425;SDS011;53237;46.158;14.604;2023-04-08T05:01:42;15.52;;;13.63;;
66425;SDS011;53237;46.158;14.604;2023-04-08T05:04:08;17.10;;;13.93;;
66425;SDS011;53237;46.158;14.604;2023-04-08T05:06:34;19.17;;;14.60;;
66425;SDS011;53237;46.158;14.604;2023-04-08T05:09:00;20.80;;;16.00;;
66425;SDS011;53237;46.158;14.604;2023-04-08T05:11:26;25.58;;;17.58;;
66425;SDS011;53237;46.158;14.604;2023-04-08T05:13:52;21.23;;;16.67;;
66425;SDS011;53237;46.158;14.604;2023-04-08T05:16:18;25.90;;;17.48;;
66425;SDS011;53237;46.158;14.604;2023-04-08T05:18:44;23.20;;;17.05;;
66425;SDS011;53237;46.158;14.604;2023-04-08T05:21:10;22.45;;;16.25;;
66425;SDS011;53237;46.158;14.604;2023-04-08T05:23:36;21.52;;;15.98;;
66425;SDS011;53237;46.158;14.604;2023-04-08T05:26:05;22.77;;;15.95;;
66425;SDS011;53237;46.158;14.604;2023-04-08T05:28:31;20.00;;;14.77;;
66425;SDS011;53237;46.158;14.604;2023-04-08T05:30:57;20.45;;;14.98;;
66425;SDS011;53237;46.158;14.604;2023-04-08T05:33:23;22.20;;;14.52;;
66425;SDS011;53237;46.158;14.604;2023-04-08T05:35:50;19.35;;;13.75;;
66425;SDS011;53237;46.158;14.604;2023-04-08T05:38:17;19.77;;;13.65;;
66425;SDS011;53237;46.158;14.604;2023-04-08T05:40:43;17.77;;;12.63;;
66425;SDS011;53237;46.158;14.604;2023-04-08T05:43:09;16.38;;;12.90;;
66425;SDS011;53237;46.158;14.604;2023-04-08T05:45:35;26.75;;;19.20;;
66425;SDS011;53237;46.158;14.604;2023-04-08T05:48:01;31.48;;;21.67;;
66425;SDS011;53237;46.158;14.604;2023-04-08T05:50:27;30.77;;;24.55;;
66425;SDS011;53237;46.158;14.604;2023-04-08T05:52:53;32.28;;;23.73;;
66425;SDS011;53237;46.158;14.604;2023-04-08T05:55:19;31.42;;;23.85;;
66425;SDS011;53237;46.158;14.604;2023-04-08T05:57:46;31.50;;;23.50;;
66425;SDS011;53237;46.158;14.604;2023-04-08T06:00:12;31.02;;;22.77;;
66425;SDS011;53237;46.158;14.604;2023-04-08T06:02:38;24.60;;;21.65;;
66425;SDS011;53237;46.158;14.604;2023-04-08T06:05:04;28.73;;;21.33;;
66425;SDS011;53237;46.158;14.604;2023-04-08T06:07:31;24.75;;;20.10;;
66425;SDS011;53237;46.158;14.604;2023-04-08T06:09:57;25.20;;;19.55;;
66425;SDS011;53237;46.158;14.604;2023-04-08T06:12:23;22.50;;;18.73;;
66425;SDS011;53237;46.158;14.604;2023-04-08T06:14:52;21.63;;;18.08;;
66425;SDS011;53237;46.158;14.604;2023-04-08T06:17:19;19.98;;;17.88;;
66425;SDS011;53237;46.158;14.604;2023-04-08T06:19:45;21.27;;;17.73;;
66425;SDS011;53237;46.158;14.604;2023-04-08T06:22:11;21.02;;;17.77;;
66425;SDS011;53237;46.158;14.604;2023-04-08T06:24:37;20.17;;;17.33;;
66425;SDS011;53237;46.158;14.604;2023-04-08T06:27:04;19.02;;;16.08;;
66425;SDS011;53237;46.158;14.604;2023-04-08T06:29:30;20.38;;;16.90;;
66425;SDS011;53237;46.158;14.604;2023-04-08T06:31:57;17.90;;;15.15;;
66425;SDS011;53237;46.158;14.604;2023-04-08T06:34:23;20.55;;;17.58;;
66425;SDS011;53237;46.158;14.604;2023-04-08T06:36:49;18.83;;;15.50;;
66425;SDS011;53237;46.158;14.604;2023-04-08T06:39:15;18.83;;;15.85;;
66425;SDS011;53237;46.158;14.604;2023-04-08T06:41:43;16.83;;;14.93;;
66425;SDS011;53237;46.158;14.604;2023-04-08T06:44:09;20.23;;;16.02;;
66425;SDS011;53237;46.158;14.604;2023-04-08T06:46:35;18.00;;;15.38;;
66425;SDS011;53237;46.158;14.604;2023-04-08T06:49:01;20.13;;;16.33;;
66425;SDS011;53237;46.158;14.604;2023-04-08T06:51:28;18.42;;;15.77;;
66425;SDS011;53237;46.158;14.604;2023-04-08T06:53:55;17.67;;;15.70;;
66425;SDS011;53237;46.158;14.604;2023-04-08T06:56:21;16.98;;;15.25;;
66425;SDS011;53237;46.158;14.604;2023-04-08T06:58:47;17.33;;;15.52;;
66425;SDS011;53237;46.158;14.604;2023-04-08T07:01:13;17.50;;;15.25;;
66425;SDS011;53237;46.158;14.604;2023-04-08T07:03:40;16.00;;;14.30;;
66425;SDS011;53237;46.158;14.604;2023-04-08T07:06:06;15.82;;;14.15;;
66425;SDS011;53237;46.158;14.604;2023-04-08T07:08:32;15.80;;;14.10;;
66425;SDS011;53237;46.158;14.604;2023-04-08T07:10:58;17.90;;;15.65;;
66425;SDS011;53237;46.158;14.604;2023-04-08T07:13:24;16.88;;;14.07;;
66425;SDS011;53237;46.158;14.604;2023-04-08T07:15:51;14.68;;;13.18;;
66425;SDS011;53237;46.158;14.604;2023-04-08T07:18:17;15.07;;;13.48;;
66425;SDS011;53237;46.158;14.604;2023-04-08T07:20:49;15.02;;;13.43;;
66425;SDS011;53237;46.158;14.604;2023-04-08T07:23:15;14.00;;;12.10;;
66425;SDS011;53237;46.158;14.604;2023-04-08T07:25:41;14.32;;;12.68;;
66425;SDS011;53237;46.158;14.604;2023-04-08T07:28:07;14.80;;;13.25;;
66425;SDS011;53237;46.158;14.604;2023-04-08T07:30:33;13.30;;;11.90;;
66425;SDS011;53237;46.158;14.604;2023-04-08T07:32:59;13.07;;;11.70;;
66425;SDS011;53237;46.158;14.604;2023-04-08T07:35:25;12.18;;;10.95;;
66425;SDS011;53237;46.158;14.604;2023-04-08T07:37:52;13.23;;;10.60;;
66425;SDS011;53237;46.158;14.604;2023-04-08T07:40:19;13.82;;;12.40;;
66425;SDS011;53237;46.158;14.604;2023-04-08T07:42:45;12.80;;;11.50;;
66425;SDS011;53237;46.158;14.604;2023-04-08T07:45:11;12.70;;;11.48;;
66425;SDS011;53237;46.158;14.604;2023-04-08T07:47:37;16.15;;;13.13;;
66425;SDS011;53237;46.158;14.604;2023-04-08T07:50:04;16.67;;;14.27;;
66425;SDS011;53237;46.158;14.604;2023-04-08T07:52:30;12.70;;;11.38;;
66425;SDS011;53237;46.158;14.604;2023-04-08T07:54:56;16.83;;;14.18;;
66425;SDS011;53237;46.158;14.604;2023-04-08T07:57:22;13.85;;;12.18;;
66425;SDS011;53237;46.158;14.604;2023-04-08T07:59:48;16.02;;;14.32;;
66425;SDS011;53237;46.158;14.604;2023-04-08T08:02:14;14.75;;;13.13;;
66425;SDS011;53237;46.158;14.604;2023-04-08T08:04:40;12.88;;;11.57;;
66425;SDS011;53237;46.158;14.604;2023-04-08T08:07:06;12.88;;;11.60;;
66425;SDS011;53237;46.158;14.604;2023-04-08T08:09:32;12.55;;;11.25;;
66425;SDS011;53237;46.158;14.604;2023-04-08T08:11:58;13.10;;;11.00;;
66425;SDS011;53237;46.158;14.604;2023-04-08T08:14:24;11.73;;;10.50;;
66425;SDS011;53237;46.158;14.604;2023-04-08T08:16:51;11.82;;;10.57;;
66425;SDS011;53237;46.158;14.604;2023-04-08T08:19:18;12.68;;;11.07;;
66425;SDS011;53237;46.158;14.604;2023-04-08T08:21:44;11.50;;;10.30;;
66425;SDS011;53237;46.158;14.604;2023-04-08T08:24:10;12.65;;;11.40;;
66425;SDS011;53237;46.158;14.604;2023-04-08T08:26:36;12.88;;;11.32;;
66425;SDS011;53237;46.158;14.604;2023-04-08T08:29:02;13.38;;;11.68;;
66425;SDS011;53237;46.158;14.604;2023-04-08T08:31:28;12.77;;;11.35;;
66425;SDS011;53237;46.158;14.604;2023-04-08T08:33:54;13.13;;;10.88;;
66425;SDS011;53237;46.158;14.604;2023-04-08T08:36:20;15.88;;;13.95;;
66425;SDS011;53237;46.158;14.604;2023-04-08T08:38:47;16.10;;;14.05;;
66425;SDS011;53237;46.158;14.604;2023-04-08T08:41:13;15.65;;;13.65;;
66425;SDS011;53237;46.158;14.604;2023-04-08T08:43:39;15.40;;;12.45;;
66425;SDS011;53237;46.158;14.604;2023-04-08T08:46:07;13.32;;;11.93;;
66425;SDS011;53237;46.158;14.604;2023-04-08T08:48:35;14.13;;;12.68;;
66425;SDS011;53237;46.158;14.604;2023-04-08T08:51:06;16.30;;;13.98;;
66425;SDS011;53237;46.158;14.604;2023-04-08T08:53:32;15.00;;;12.40;;
66425;SDS011;53237;46.158;14.604;2023-04-08T08:55:59;12.05;;;10.80;;
66425;SDS011;53237;46.158;14.604;2023-04-08T08:58:25;13.43;;;12.02;;
66425;SDS011;53237;46.158;14.604;2023-04-08T09:00:52;11.10;;;10.00;;
66425;SDS011;53237;46.158;14.604;2023-04-08T09:03:24;12.90;;;10.88;;
66425;SDS011;53237;46.158;14.604;2023-04-08T09:08:30;11.75;;;10.13;;
66425;SDS011;53237;46.158;14.604;2023-04-08T09:11:12;12.00;;;10.80;;
66425;SDS011;53237;46.158;14.604;2023-04-08T09:13:39;14.07;;;12.02;;
66425;SDS011;53237;46.158;14.604;2023-04-08T09:16:06;13.60;;;11.80;;
66425;SDS011;53237;46.158;14.604;2023-04-08T09:18:33;13.20;;;11.60;;
66425;SDS011;53237;46.158;14.604;2023-04-08T09:21:03;16.02;;;12.38;;
66425;SDS011;53237;46.158;14.604;2023-04-08T09:26:09;13.77;;;12.35;;
66425;SDS011;53237;46.158;14.604;2023-04-08T09:28:35;14.15;;;12.68;;
66425;SDS011;53237;46.158;14.604;2023-04-08T09:33:43;13.73;;;11.65;;
66425;SDS011;53237;46.158;14.604;2023-04-08T09:36:10;13.52;;;11.38;;
66425;SDS011;53237;46.158;14.604;2023-04-08T09:38:36;12.55;;;10.35;;
66425;SDS011;53237;46.158;14.604;2023-04-08T09:41:03;11.15;;;10.02;;
66425;SDS011;53237;46.158;14.604;2023-04-08T09:43:32;10.82;;;9.48;;
66425;SDS011;53237;46.158;14.604;2023-04-08T09:46:01;11.88;;;10.68;;
66425;SDS011;53237;46.158;14.604;2023-04-08T09:48:30;10.90;;;9.80;;
66425;SDS011;53237;46.158;14.604;2023-04-08T09:50:57;12.35;;;9.73;;
66425;SDS011;53237;46.158;14.604;2023-04-08T09:53:34;14.93;;;10.98;;
66425;SDS011;53237;46.158;14.604;2023-04-08T09:56:01;11.45;;;10.15;;
66425;SDS011;53237;46.158;14.604;2023-04-08T09:58:38;11.45;;;9.77;;
66425;SDS011;53237;46.158;14.604;2023-04-08T10:01:06;11.85;;;10.18;;
66425;SDS011;53237;46.158;14.604;2023-04-08T10:03:44;11.55;;;9.70;;
66425;SDS011;53237;46.158;14.604;2023-04-08T10:06:13;12.98;;;11.57;;
66425;SDS011;53237;46.158;14.604;2023-04-08T10:08:40;15.45;;;10.82;;
66425;SDS011;53237;46.158;14.604;2023-04-08T10:11:06;11.82;;;9.88;;
66425;SDS011;53237;46.158;14.604;2023-04-08T10:13:32;11.35;;;9.85;;
66425;SDS011;53237;46.158;14.604;2023-04-08T10:16:16;13.80;;;10.18;;
66425;SDS011;53237;46.158;14.604;2023-04-08T10:18:43;15.98;;;14.27;;
66425;SDS011;53237;46.158;14.604;2023-04-08T10:23:55;12.80;;;9.88;;
66425;SDS011;53237;46.158;14.604;2023-04-08T10:26:30;11.15;;;9.00;;
66425;SDS011;53237;46.158;14.604;2023-04-08T10:31:42;10.23;;;8.60;;
66425;SDS011;53237;46.158;14.604;2023-04-08T10:34:49;10.95;;;8.65;;
66425;SDS011;53237;46.158;14.604;2023-04-08T10:39:26;8.65;;;7.75;;
66425;SDS011;53237;46.158;14.604;2023-04-08T10:41:52;9.98;;;8.20;;
66425;SDS011;53237;46.158;14.604;2023-04-08T10:44:19;8.52;;;7.68;;
66425;SDS011;53237;46.158;14.604;2023-04-08T10:46:45;11.40;;;8.80;;
66425;SDS011;53237;46.158;14.604;2023-04-08T10:49:12;10.13;;;8.50;;
66425;SDS011;53237;46.158;14.604;2023-04-08T10:51:38;10.10;;;7.35;;
66425;SDS011;53237;46.158;14.604;2023-04-08T10:54:06;8.52;;;7.03;;
66425;SDS011;53237;46.158;14.604;2023-04-08T10:56:32;8.82;;;7.43;;
66425;SDS011;53237;46.158;14.604;2023-04-08T10:58:59;9.93;;;7.25;;
66425;SDS011;53237;46.158;14.604;2023-04-08T11:01:25;9.15;;;8.02;;
66425;SDS011;53237;46.158;14.604;2023-04-08T11:03:52;7.70;;;7.00;;
66425;SDS011;53237;46.158;14.604;2023-04-08T11:06:18;7.68;;;6.80;;
66425;SDS011;53237;46.158;14.604;2023-04-08T11:08:44;8.73;;;7.53;;
66425;SDS011;53237;46.158;14.604;2023-04-08T11:11:11;9.48;;;7.93;;
66425;SDS011;53237;46.158;14.604;2023-04-08T11:13:41;9.45;;;7.53;;
66425;SDS011;53237;46.158;14.604;2023-04-08T11:16:07;7.00;;;6.30;;
66425;SDS011;53237;46.158;14.604;2023-04-08T11:18:34;9.95;;;7.75;;
66425;SDS011;53237;46.158;14.604;2023-04-08T11:21:00;7.95;;;6.82;;
66425;SDS011;53237;46.158;14.604;2023-04-08T11:23:27;10.05;;;9.02;;
66425;SDS011;53237;46.158;14.604;2023-04-08T11:25:53;9.25;;;7.85;;
66425;SDS011;53237;46.158;14.604;2023-04-08T11:28:19;8.88;;;7.97;;
66425;SDS011;53237;46.158;14.604;2023-04-08T11:30:45;8.70;;;7.78;;
66425;SDS011;53237;46.158;14.604;2023-04-08T11:33:12;8.32;;;7.35;;
66425;SDS011;53237;46.158;14.604;2023-04-08T11:35:39;8.80;;;7.20;;
66425;SDS011;53237;46.158;14.604;2023-04-08T11:38:05;11.15;;;7.47;;
66425;SDS011;53237;46.158;14.604;2023-04-08T11:40:31;7.88;;;7.07;;
66425;SDS011;53237;46.158;14.604;2023-04-08T11:42:57;9.02;;;8.00;;
66425;SDS011;53237;46.158;14.604;2023-04-08T11:45:23;8.75;;;7.85;;
66425;SDS011;53237;46.158;14.604;2023-04-08T11:47:49;8.30;;;7.20;;
66425;SDS011;53237;46.158;14.604;2023-04-08T11:50:23;9.02;;;7.50;;
66425;SDS011;53237;46.158;14.604;2023-04-08T11:52:49;9.80;;;7.45;;
66425;SDS011;53237;46.158;14.604;2023-04-08T11:55:29;7.78;;;6.97;;
66425;SDS011;53237;46.158;14.604;2023-04-08T11:57:56;7.38;;;6.68;;
66425;SDS011;53237;46.158;14.604;2023-04-08T12:00:22;8.50;;;7.03;;
66425;SDS011;53237;46.158;14.604;2023-04-08T12:02:48;7.10;;;6.40;;
66425;SDS011;53237;46.158;14.604;2023-04-08T12:05:16;6.15;;;5.55;;
66425;SDS011;53237;46.158;14.604;2023-04-08T12:07:42;6.18;;;4.95;;
66425;SDS011;53237;46.158;14.604;2023-04-08T12:10:09;5.68;;;5.18;;
66425;SDS011;53237;46.158;14.604;2023-04-08T12:12:35;8.45;;;6.88;;
66425;SDS011;53237;46.158;14.604;2023-04-08T12:15:01;7.35;;;6.60;;
66425;SDS011;53237;46.158;14.604;2023-04-08T12:17:27;5.60;;;4.97;;
66425;SDS011;53237;46.158;14.604;2023-04-08T12:19:53;6.47;;;5.82;;
66425;SDS011;53237;46.158;14.604;2023-04-08T12:22:20;7.78;;;5.70;;
66425;SDS011;53237;46.158;14.604;2023-04-08T12:24:46;5.40;;;4.70;;
66425;SDS011;53237;46.158;14.604;2023-04-08T12:27:12;6.97;;;6.28;;
66425;SDS011;53237;46.158;14.604;2023-04-08T12:29:38;7.65;;;6.88;;
66425;SDS011;53237;46.158;14.604;2023-04-08T12:32:04;7.07;;;6.38;;
66425;SDS011;53237;46.158;14.604;2023-04-08T12:34:30;6.88;;;6.18;;
66425;SDS011;53237;46.158;14.604;2023-04-08T12:36:57;6.45;;;5.85;;
66425;SDS011;53237;46.158;14.604;2023-04-08T12:39:23;7.90;;;6.60;;
66425;SDS011;53237;46.158;14.604;2023-04-08T12:41:49;6.30;;;5.70;;
66425;SDS011;53237;46.158;14.604;2023-04-08T12:44:15;4.82;;;4.43;;
66425;SDS011;53237;46.158;14.604;2023-04-08T12:46:41;5.75;;;5.25;;
66425;SDS011;53237;46.158;14.604;2023-04-08T12:49:07;5.97;;;5.38;;
66425;SDS011;53237;46.158;14.604;2023-04-08T12:51:34;8.48;;;6.07;;
66425;SDS011;53237;46.158;14.604;2023-04-08T12:54:00;5.78;;;5.18;;
66425;SDS011;53237;46.158;14.604;2023-04-08T12:56:28;7.35;;;6.63;;
66425;SDS011;53237;46.158;14.604;2023-04-08T12:58:54;7.28;;;6.57;;
66425;SDS011;53237;46.158;14.604;2023-04-08T13:01:21;7.70;;;6.13;;
66425;SDS011;53237;46.158;14.604;2023-04-08T13:03:47;6.57;;;5.90;;
66425;SDS011;53237;46.158;14.604;2023-04-08T13:06:13;7.47;;;6.78;;
66425;SDS011;53237;46.158;14.604;2023-04-08T13:08:39;6.40;;;5.80;;
66425;SDS011;53237;46.158;14.604;2023-04-08T13:11:06;6.90;;;5.97;;
66425;SDS011;53237;46.158;14.604;2023-04-08T13:13:32;6.30;;;5.70;;
66425;SDS011;53237;46.158;14.604;2023-04-08T13:15:58;5.85;;;5.25;;
66425;SDS011;53237;46.158;14.604;2023-04-08T13:18:24;5.65;;;5.05;;
66425;SDS011;53237;46.158;14.604;2023-04-08T13:20:50;7.47;;;6.10;;
66425;SDS011;53237;46.158;14.604;2023-04-08T13:23:17;5.65;;;5.13;;
66425;SDS011;53237;46.158;14.604;2023-04-08T13:25:45;5.28;;;4.78;;
66425;SDS011;53237;46.158;14.604;2023-04-08T13:28:11;4.70;;;4.30;;
66425;SDS011;53237;46.158;14.604;2023-04-08T13:30:37;5.30;;;4.82;;
66425;SDS011;53237;46.158;14.604;2023-04-08T13:33:03;6.07;;;5.20;;
66425;SDS011;53237;46.158;14.604;2023-04-08T13:35:29;5.57;;;5.07;;
66425;SDS011;53237;46.158;14.604;2023-04-08T13:37:55;8.25;;;6.40;;
66425;SDS011;53237;46.158;14.604;2023-04-08T13:40:21;7.63;;;6.82;;
66425;SDS011;53237;46.158;14.604;2023-04-08T13:42:48;7.63;;;5.93;;
66425;SDS011;53237;46.158;14.604;2023-04-08T13:45:14;7.40;;;5.80;;
66425;SDS011;53237;46.158;14.604;2023-04-08T13:47:40;7.35;;;6.55;;
66425;SDS011;53237;46.158;14.604;2023-04-08T13:50:06;9.30;;;7.63;;
66425;SDS011;53237;46.158;14.604;2023-04-08T13:52:32;7.32;;;6.55;;
66425;SDS011;53237;46.158;14.604;2023-04-08T13:54:58;7.63;;;6.50;;
66425;SDS011;53237;46.158;14.604;2023-04-08T13:57:24;5.88;;;5.28;;
66425;SDS011;53237;46.158;14.604;2023-04-08T13:59:50;8.10;;;7.30;;
66425;SDS011;53237;46.158;14.604;2023-04-08T14:02:16;7.68;;;6.90;;
66425;SDS011;53237;46.158;14.604;2023-04-08T14:04:42;7.28;;;6.57;;
66425;SDS011;53237;46.158;14.604;2023-04-08T14:07:10;8.27;;;7.43;;
66425;SDS011;53237;46.158;14.604;2023-04-08T14:09:36;7.90;;;7.10;;
66425;SDS011;53237;46.158;14.604;2023-04-08T14:12:01;5.95;;;5.35;;
66425;SDS011;53237;46.158;14.604;2023-04-08T14:14:28;5.97;;;5.38;;
66425;SDS011;53237;46.158;14.604;2023-04-08T14:16:54;5.95;;;5.35;;
66425;SDS011;53237;46.158;14.604;2023-04-08T14:19:20;7.13;;;6.43;;
66425;SDS011;53237;46.158;14.604;2023-04-08T14:21:46;6.93;;;6.32;;
66425;SDS011;53237;46.158;14.604;2023-04-08T14:24:12;6.25;;;5.72;;
66425;SDS011;53237;46.158;14.604;2023-04-08T14:26:38;6.72;;;5.75;;
66425;SDS011;53237;46.158;14.604;2023-04-08T14:29:05;6.00;;;5.03;;
66425;SDS011;53237;46.158;14.604;2023-04-08T14:31:31;9.15;;;8.00;;
66425;SDS011;53237;46.158;14.604;2023-04-08T14:33:58;11.40;;;9.50;;
66425;SDS011;53237;46.158;14.604;2023-04-08T14:36:24;8.20;;;7.07;;
66425;SDS011;53237;46.158;14.604;2023-04-08T14:38:50;10.45;;;9.02;;
66425;SDS011;53237;46.158;14.604;2023-04-08T14:41:16;11.77;;;10.52;;
66425;SDS011;53237;46.158;14.604;2023-04-08T14:43:42;12.45;;;11.15;;
66425;SDS011;53237;46.158;14.604;2023-04-08T14:46:08;7.60;;;6.80;;